createdAt,value
2023-05-16T00:01:30.286Z,94859.88
2023-05-16T00:04:17.727Z,94857.84
2023-05-16T00:07:03.823Z,94847.22
2023-05-16T00:09:50.131Z,94847.22
2023-05-16T00:12:36.993Z,94853.09
2023-05-16T00:15:23.473Z,94837.84
2023-05-16T00:18:10.116Z,94838.56
2023-05-16T00:20:56.325Z,94843.22
2023-05-16T00:23:42.527Z,94837.75
2023-05-16T00:26:28.620Z,94825.28
2023-05-16T00:29:14.771Z,94811.19
2023-05-16T00:32:00.976Z,94813.81
2023-05-16T00:34:46.889Z,94807.31
2023-05-16T00:37:33.186Z,94801.06
2023-05-16T00:40:19.006Z,94799.13
2023-05-16T00:43:05.020Z,94789.38
2023-05-16T00:45:51.925Z,94794.03
2023-05-16T00:48:38.265Z,94807.31
2023-05-16T00:51:26.524Z,94812.78
2023-05-16T00:54:12.678Z,94831.44
2023-05-16T00:56:59.672Z,94842.34
2023-05-16T00:59:46.996Z,94826.50
2023-05-16T01:02:33.332Z,94790.97
2023-05-16T01:05:22.095Z,94834.69
2023-05-16T01:08:07.773Z,94812.50
2023-05-16T01:11:09.734Z,94802.72
2023-05-16T01:14:09.254Z,94794.13
2023-05-16T01:17:07.820Z,94812.78
2023-05-16T01:20:18.275Z,94832.66
2023-05-16T01:23:20.128Z,94826.78
2023-05-16T01:26:12.590Z,94811.19
2023-05-16T01:28:59.252Z,94777.63
2023-05-16T01:31:45.204Z,94758.53
2023-05-16T01:34:31.385Z,94737.47
2023-05-16T01:37:25.118Z,94737.88
2023-05-16T01:40:16.753Z,94732.81
2023-05-16T01:43:07.271Z,94735.53
2023-05-16T01:45:58.142Z,94735.19
2023-05-16T01:48:56.142Z,94737.13
2023-05-16T01:51:42.412Z,94737.88
2023-05-16T01:54:31.849Z,94721.53
2023-05-16T01:57:17.917Z,94737.13
2023-05-16T02:00:05.180Z,94753.47
2023-05-16T02:02:59.698Z,94749.56
2023-05-16T02:05:45.739Z,94751.88
2023-05-16T02:08:33.829Z,94727.56
2023-05-16T02:11:19.609Z,94708.00
2023-05-16T02:14:05.466Z,94692.44
2023-05-16T02:16:51.662Z,94700.25
2023-05-16T02:19:37.940Z,94712.72
2023-05-16T02:22:24.082Z,94707.25
2023-05-16T02:25:10.362Z,94719.03
2023-05-16T02:27:56.606Z,94707.25
2023-05-16T02:30:42.571Z,94703.47
2023-05-16T02:33:29.145Z,94696.53
2023-05-16T02:36:15.259Z,94700.84
2023-05-16T02:39:02.330Z,94698.88
2023-05-16T02:41:48.342Z,94696.53
2023-05-16T02:44:34.750Z,94684.09
2023-05-16T02:47:20.681Z,94701.25
2023-05-16T02:50:07.180Z,94713.78
2023-05-16T02:52:54.132Z,94692.69
2023-05-16T02:55:39.970Z,94680.34
2023-05-16T02:58:26.215Z,94697.91
2023-05-16T03:01:11.936Z,94697.50
2023-05-16T03:03:57.880Z,94700.66
2023-05-16T03:06:44.420Z,94692.06
2023-05-16T03:09:30.587Z,94671.78
2023-05-16T03:12:16.751Z,94696.75
2023-05-16T03:15:02.640Z,94709.97
2023-05-16T03:17:49.189Z,94705.34
2023-05-16T03:24:11.545Z,94698.28
2023-05-16T03:27:00.111Z,94669.34
2023-05-16T03:30:06.996Z,94680.69
2023-05-16T03:32:59.145Z,94692.03
2023-05-16T03:35:45.724Z,94677.09
2023-05-16T03:38:32.326Z,94673.66
2023-05-16T03:41:18.292Z,94687.41
2023-05-16T03:44:04.572Z,94688.16
2023-05-16T03:46:52.982Z,94689.78
2023-05-16T03:49:38.945Z,94686.63
2023-05-16T03:52:25.191Z,94703.13
2023-05-16T03:55:14.355Z,94675.03
2023-05-16T03:58:00.795Z,94649.34
2023-05-16T04:00:46.974Z,94643.16
2023-05-16T04:03:33.745Z,94661.94
2023-05-16T04:06:19.888Z,94650.59
2023-05-16T04:09:06.631Z,94663.50
2023-05-16T04:11:52.695Z,94668.22
2023-05-16T04:14:38.942Z,94668.22
2023-05-16T04:17:24.891Z,94666.69
2023-05-16T04:20:11.795Z,94671.78
2023-05-16T04:23:04.240Z,94663.19
2023-05-16T04:25:50.808Z,94675.00
2023-05-16T04:28:37.274Z,94699.63
2023-05-16T04:31:23.342Z,94691.84
2023-05-16T04:34:11.773Z,94664.97
2023-05-16T04:36:57.928Z,94653.69
2023-05-16T04:39:44.117Z,94667.75
2023-05-16T04:42:42.427Z,94670.13
2023-05-16T04:45:28.780Z,94672.50
2023-05-16T04:48:15.875Z,94680.34
2023-05-16T04:51:02.035Z,94674.94
2023-05-16T04:53:48.742Z,94649.22
2023-05-16T04:56:34.998Z,94634.41
2023-05-16T04:59:21.872Z,94641.41
2023-05-16T05:02:07.981Z,94657.03
2023-05-16T05:04:54.890Z,94662.09
2023-05-16T05:07:41.046Z,94660.22
2023-05-16T05:10:31.334Z,94651.28
2023-05-16T05:13:17.301Z,94652.06
2023-05-16T05:16:05.977Z,94672.78
2023-05-16T05:18:52.239Z,94672.06
2023-05-16T05:21:38.344Z,94657.25
2023-05-16T05:24:24.657Z,94658.84
2023-05-16T05:27:10.570Z,94666.66
2023-05-16T05:29:56.587Z,94671.34
2023-05-16T05:32:42.885Z,94669.88
2023-05-16T05:35:29.152Z,94671.44
2023-05-16T05:38:15.206Z,94653.47
2023-05-16T05:41:01.037Z,94648.81
2023-05-16T05:43:47.089Z,94652.63
2023-05-16T05:46:33.944Z,94666.41
2023-05-16T05:49:19.963Z,94678.53
2023-05-16T05:52:06.111Z,94679.31
2023-05-16T05:54:52.810Z,94673.88
2023-05-16T05:57:39.196Z,94669.22
2023-05-16T06:00:26.120Z,94673.94
2023-05-16T06:03:12.451Z,94681.81
2023-05-16T06:05:58.662Z,94666.97
2023-05-16T06:08:44.740Z,94681.47
2023-05-16T06:11:32.370Z,94676.44
2023-05-16T06:14:19.704Z,94680.38
2023-05-16T06:17:05.976Z,94693.66
2023-05-16T06:19:52.126Z,94682.69
2023-05-16T06:22:38.054Z,94691.69
2023-05-16T06:25:23.903Z,94699.13
2023-05-16T06:28:09.854Z,94685.47
2023-05-16T06:30:56.036Z,94687.00
2023-05-16T06:33:42.306Z,94677.66
2023-05-16T06:36:28.152Z,94677.34
2023-05-16T06:39:14.078Z,94667.97
2023-05-16T06:42:00.136Z,94669.50
2023-05-16T06:44:51.336Z,94689.09
2023-05-16T06:47:37.092Z,94692.22
2023-05-16T06:50:23.268Z,94686.78
2023-05-16T06:53:09.236Z,94691.44
2023-05-16T06:58:39.297Z,94678.19
2023-05-16T07:01:25.728Z,94685.28
2023-05-16T07:04:12.031Z,94669.63
2023-05-16T07:06:57.767Z,94685.31
2023-05-16T07:09:43.885Z,94677.50
2023-05-16T07:12:30.444Z,94675.16
2023-05-16T07:15:16.280Z,94673.63
2023-05-16T07:18:02.549Z,94674.84
2023-05-16T07:20:48.731Z,94678.00
2023-05-16T07:23:35.092Z,94684.63
2023-05-16T07:26:23.406Z,94697.13
2023-05-16T07:29:09.275Z,94699.50
2023-05-16T07:31:55.429Z,94699.06
2023-05-16T07:34:41.640Z,94713.59
2023-05-16T07:37:27.857Z,94712.06
2023-05-16T07:40:14.970Z,94705.06
2023-05-16T07:43:02.936Z,94707.38
2023-05-16T07:45:48.722Z,94713.66
2023-05-16T07:48:34.982Z,94701.13
2023-05-16T07:51:21.391Z,94710.56
2023-05-16T07:54:09.613Z,94705.88
2023-05-16T07:56:56.616Z,94717.59
2023-05-16T07:59:43.372Z,94712.13
2023-05-16T08:02:31.196Z,94710.53
2023-05-16T08:05:17.580Z,94694.88
2023-05-16T08:08:03.836Z,94683.16
2023-05-16T08:10:49.751Z,94683.19
2023-05-16T08:13:36.208Z,94694.13
2023-05-16T08:16:22.128Z,94688.69
2023-05-16T08:19:08.045Z,94689.81
2023-05-16T08:21:54.111Z,94711.34
2023-05-16T08:24:39.992Z,94723.13
2023-05-16T08:27:25.830Z,94723.06
2023-05-16T08:30:13.140Z,94732.91
2023-05-16T08:32:58.759Z,94730.97
2023-05-16T08:35:45.037Z,94725.47
2023-05-16T08:38:31.073Z,94728.59
2023-05-16T08:41:18.425Z,94727.00
2023-05-16T08:44:04.905Z,94734.06
2023-05-16T08:46:53.082Z,94731.75
2023-05-16T08:49:41.599Z,94736.44
2023-05-16T08:52:31.434Z,94741.16
2023-05-16T08:55:20.074Z,94742.69
2023-05-16T08:58:06.126Z,94735.69
2023-05-16T09:00:52.390Z,94730.91
2023-05-16T09:03:39.130Z,94728.19
2023-05-16T09:06:25.187Z,94733.22
2023-05-16T09:09:13.217Z,94743.38
2023-05-16T09:11:59.365Z,94741.38
2023-05-16T09:14:45.692Z,94759.78
2023-05-16T09:17:40.065Z,94762.16
2023-05-16T09:20:28.131Z,94764.88
2023-05-16T09:23:14.051Z,94779.34
2023-05-16T09:25:59.938Z,94786.34
2023-05-16T09:28:45.996Z,94790.63
2023-05-16T09:31:37.738Z,94807.91
2023-05-16T09:34:23.815Z,94810.66
2023-05-16T09:37:11.267Z,94820.00
2023-05-16T09:39:57.438Z,94820.84
2023-05-16T09:42:44.258Z,94815.31
2023-05-16T09:45:32.022Z,94830.22
2023-05-16T09:48:21.196Z,94831.25
2023-05-16T09:51:07.433Z,94844.06
2023-05-16T09:53:53.387Z,94847.81
2023-05-16T09:56:50.106Z,94850.06
2023-05-16T09:59:38.008Z,94851.47
2023-05-16T10:02:24.738Z,94853.72
2023-05-16T10:05:11.261Z,94860.03
2023-05-16T10:07:58.459Z,94859.63
2023-05-16T10:10:45.524Z,94851.41
2023-05-16T10:13:36.038Z,94848.31
2023-05-16T10:16:23.994Z,94826.47
2023-05-16T10:19:11.216Z,94818.25
2023-05-16T10:21:59.766Z,94788.97
2023-05-16T10:24:49.271Z,94786.66
2023-05-16T10:27:36.585Z,94798.38
2023-05-16T10:30:22.792Z,94803.84
2023-05-16T10:33:12.578Z,94810.13
2023-05-16T10:35:58.707Z,94834.34
2023-05-16T10:38:45.497Z,94855.06
2023-05-16T10:41:31.707Z,94855.44
2023-05-16T10:44:17.559Z,94817.16
2023-05-16T10:47:04.746Z,94769.13
2023-05-16T10:49:50.932Z,94743.00
2023-05-16T10:52:36.815Z,94771.84
2023-05-16T10:55:22.663Z,94798.81
2023-05-16T10:58:08.995Z,94812.88
2023-05-16T11:01:16.702Z,94797.66
2023-05-16T11:04:05.660Z,94794.53
2023-05-16T11:06:53.521Z,94731.34
2023-05-16T11:09:45.243Z,94715.69
2023-05-16T11:12:48.311Z,94753.25
2023-05-16T11:15:34.819Z,94754.06
2023-05-16T11:18:21.171Z,94750.97
2023-05-16T11:21:07.256Z,94744.06
2023-05-16T11:24:30.649Z,94754.25
2023-05-16T11:27:32.130Z,94752.75
2023-05-16T11:30:19.980Z,94750.84
2023-05-16T11:33:06.267Z,94734.91
2023-05-16T11:36:16.178Z,94732.53
2023-05-16T11:39:12.465Z,94728.28
2023-05-16T11:42:02.270Z,94729.56
2023-05-16T11:44:48.249Z,94731.13
2023-05-16T11:47:34.466Z,94718.56
2023-05-16T11:50:23.633Z,94711.44
2023-05-16T11:53:09.910Z,94702.94
2023-05-16T11:55:56.474Z,94680.28
2023-05-16T11:58:43.151Z,94609.88
2023-05-16T12:01:39.875Z,94605.16
2023-05-16T12:04:28.505Z,94700.88
2023-05-16T12:07:15.146Z,94670.41
2023-05-16T12:10:08.036Z,94677.13
2023-05-16T12:12:54.800Z,94664.59
2023-05-16T12:15:41.093Z,94673.94
2023-05-16T12:18:27.112Z,94672.38
2023-05-16T12:21:13.865Z,94662.94
2023-05-16T12:24:00.292Z,94658.28
2023-05-16T12:26:46.543Z,94660.63
2023-05-16T12:29:32.890Z,94651.25
2023-05-16T12:32:20.202Z,94651.34
2023-05-16T12:35:07.932Z,94642.81
2023-05-16T12:37:53.976Z,94637.75
2023-05-16T12:40:41.845Z,94640.63
2023-05-16T12:43:28.684Z,94636.78
2023-05-16T12:46:14.875Z,94632.97
2023-05-16T12:49:06.815Z,94621.25
2023-05-16T12:52:48.959Z,94626.03
2023-05-16T12:55:35.121Z,94608.00
2023-05-16T12:58:22.271Z,94609.25
2023-05-16T13:01:10.570Z,94599.47
2023-05-16T13:03:56.730Z,94610.47
2023-05-16T13:06:57.351Z,94615.19
2023-05-16T13:09:45.441Z,94611.25
2023-05-16T13:12:31.731Z,94595.22
2023-05-16T13:15:18.275Z,94598.78
2023-05-16T13:18:04.234Z,94598.81
2023-05-16T13:20:51.120Z,94593.34
2023-05-16T13:23:37.051Z,94586.31
2023-05-16T13:26:22.928Z,94586.34
2023-05-16T13:29:11.547Z,94578.56
2023-05-16T13:31:57.531Z,94562.94
2023-05-16T13:34:43.622Z,94570.00
2023-05-16T13:37:30.216Z,94570.75
2023-05-16T13:40:16.302Z,94575.47
2023-05-16T13:43:02.973Z,94549.63
2023-05-16T13:45:49.257Z,94561.75
2023-05-16T13:48:36.084Z,94575.47
2023-05-16T13:51:22.508Z,94583.28
2023-05-16T13:54:08.872Z,94583.28
2023-05-16T13:56:55.078Z,94584.84
2023-05-16T14:02:30.231Z,94579.38
2023-05-16T14:05:16.645Z,94564.09
2023-05-16T14:08:02.945Z,94574.66
2023-05-16T14:10:49.153Z,94583.25
2023-05-16T14:13:35.015Z,94566.41
2023-05-16T14:16:21.247Z,94595.00
2023-05-16T14:19:07.416Z,94584.00
2023-05-16T14:21:53.726Z,94582.00
2023-05-16T14:24:44.151Z,94585.56
2023-05-16T14:27:31.002Z,94585.16
2023-05-16T14:30:17.512Z,94574.94
2023-05-16T14:33:03.849Z,94582.38
2023-05-16T14:35:50.325Z,94576.91
2023-05-16T14:38:36.830Z,94578.44
2023-05-16T14:41:57.060Z,94563.22
2023-05-16T14:44:43.383Z,94566.31
2023-05-16T14:47:31.417Z,94552.63
2023-05-16T14:50:17.676Z,94562.00
2023-05-16T14:53:04.517Z,94557.72
2023-05-16T14:55:50.537Z,94564.00
2023-05-16T14:58:36.968Z,94565.94
2023-05-16T15:01:23.079Z,94566.72
2023-05-16T15:04:09.383Z,94567.53
2023-05-16T15:06:55.617Z,94569.06
2023-05-16T15:09:41.933Z,94573.75
2023-05-16T15:12:28.770Z,94579.25
2023-05-16T15:15:16.709Z,94583.16
2023-05-16T15:18:02.669Z,94591.78
2023-05-16T15:20:48.954Z,94579.25
2023-05-16T15:23:35.242Z,94585.56
2023-05-16T15:26:22.674Z,94593.38
2023-05-16T15:29:08.812Z,94591.81
2023-05-16T15:31:54.949Z,94606.69
2023-05-16T15:34:41.348Z,94605.13
2023-05-16T15:37:27.591Z,94603.19
2023-05-16T15:40:14.170Z,94604.34
2023-05-16T15:43:00.101Z,94592.19
2023-05-16T15:45:46.134Z,94592.56
2023-05-16T15:48:32.287Z,94586.72
2023-05-16T15:51:19.523Z,94583.16
2023-05-16T15:54:05.529Z,94577.69
2023-05-16T15:56:51.835Z,94569.06
2023-05-16T15:59:38.050Z,94571.44
2023-05-16T16:02:24.304Z,94569.84
2023-05-16T16:05:10.479Z,94571.41
2023-05-16T16:07:56.536Z,94573.75
2023-05-16T16:10:42.440Z,94571.38
2023-05-16T16:13:28.719Z,94579.25
2023-05-16T16:16:15.849Z,94573.75
2023-05-16T16:19:01.997Z,94583.16
2023-05-16T16:21:53.546Z,94576.84
2023-05-16T16:24:41.887Z,94591.00
2023-05-16T16:27:39.760Z,94588.63
2023-05-16T16:30:27.979Z,94584.31
2023-05-16T16:33:14.636Z,94587.84
2023-05-16T16:36:01.384Z,94591.38
2023-05-16T16:38:48.742Z,94585.47
2023-05-16T16:41:34.982Z,94578.00
2023-05-16T16:44:21.051Z,94585.81
2023-05-16T16:47:07.358Z,94592.47
2023-05-16T16:49:53.304Z,94581.91
2023-05-16T16:52:39.087Z,94581.47
2023-05-16T16:55:25.102Z,94590.09
2023-05-16T16:58:11.129Z,94597.13
2023-05-16T17:00:57.341Z,94603.34
2023-05-16T17:03:43.463Z,94604.91
2023-05-16T17:06:30.217Z,94602.13
2023-05-16T17:09:19.897Z,94604.09
2023-05-16T17:12:08.537Z,94607.97
2023-05-16T17:14:56.272Z,94597.41
2023-05-16T17:17:42.635Z,94596.22
2023-05-16T17:20:28.834Z,94600.13
2023-05-16T17:23:15.077Z,94601.66
2023-05-16T17:26:01.584Z,94618.84
2023-05-16T17:28:49.399Z,94625.06
2023-05-16T17:31:35.705Z,94615.69
2023-05-16T17:34:21.942Z,94632.84
2023-05-16T17:37:08.353Z,94623.44
2023-05-16T17:39:54.552Z,94633.19
2023-05-16T17:42:40.621Z,94638.28
2023-05-16T17:45:26.634Z,94625.31
2023-05-16T17:48:12.588Z,94641.31
2023-05-16T17:50:58.907Z,94644.84
2023-05-16T17:53:45.208Z,94641.28
2023-05-16T17:56:31.182Z,94647.53
2023-05-16T17:59:17.635Z,94657.28
2023-05-16T18:02:04.638Z,94657.66
2023-05-16T18:04:51.645Z,94650.59
2023-05-16T18:07:37.571Z,94648.16
2023-05-16T18:10:25.616Z,94655.25
2023-05-16T18:13:12.585Z,94657.91
2023-05-16T18:15:58.598Z,94655.13
2023-05-16T18:18:44.557Z,94652.00
2023-05-16T18:21:31.565Z,94649.22
2023-05-16T18:24:17.654Z,94652.75
2023-05-16T18:27:04.024Z,94646.47
2023-05-16T18:29:50.121Z,94654.69
2023-05-16T18:32:36.635Z,94645.66
2023-05-16T18:35:23.838Z,94661.31
2023-05-16T18:38:17.432Z,94664.38
2023-05-16T18:41:15.900Z,94675.31
2023-05-16T18:44:04.728Z,94677.25
2023-05-16T18:46:51.111Z,94670.63
2023-05-16T18:49:40.587Z,94667.13
2023-05-16T18:52:26.308Z,94680.78
2023-05-16T18:55:12.417Z,94674.53
2023-05-16T18:57:58.782Z,94683.94
2023-05-16T19:00:44.778Z,94662.00
2023-05-16T19:03:33.194Z,94669.09
2023-05-16T19:06:19.548Z,94661.22
2023-05-16T19:09:09.023Z,94676.06
2023-05-16T19:11:56.225Z,94682.38
2023-05-16T19:14:42.184Z,94684.69
2023-05-16T19:17:28.267Z,94687.00
2023-05-16T19:20:14.093Z,94695.19
2023-05-16T19:23:00.417Z,94704.19
2023-05-16T19:25:49.119Z,94703.00
2023-05-16T19:28:37.560Z,94702.59
2023-05-16T19:31:23.757Z,94711.22
2023-05-16T19:34:09.998Z,94714.31
2023-05-16T19:36:56.227Z,94717.44
2023-05-16T19:39:42.404Z,94721.31
2023-05-16T19:42:28.526Z,94726.72
2023-05-16T19:45:14.587Z,94724.78
2023-05-16T19:48:00.538Z,94729.84
2023-05-16T19:50:46.823Z,94725.94
2023-05-16T19:53:32.957Z,94734.50
2023-05-16T19:56:18.939Z,94730.19
2023-05-16T19:59:04.821Z,94723.47
2023-05-16T20:01:50.809Z,94728.19
2023-05-16T20:04:36.472Z,94725.88
2023-05-16T20:07:23.165Z,94734.06
2023-05-16T20:10:09.491Z,94743.84
2023-05-16T20:12:55.387Z,94741.84
2023-05-16T20:15:41.159Z,94749.31
2023-05-16T20:18:27.043Z,94749.69
2023-05-16T20:21:13.553Z,94755.94
2023-05-16T20:23:59.668Z,94756.69
2023-05-16T20:26:45.637Z,94749.63
2023-05-16T20:29:34.816Z,94748.41
2023-05-16T20:32:21.400Z,94760.19
2023-05-16T20:35:10.197Z,94758.59
2023-05-16T20:37:56.362Z,94761.72
2023-05-16T20:40:42.185Z,94761.72
2023-05-16T20:43:28.439Z,94748.03
2023-05-16T20:46:14.085Z,94752.38
2023-05-16T20:49:00.264Z,94751.59
2023-05-16T20:51:46.214Z,94741.50
2023-05-16T20:54:32.666Z,94774.28
2023-05-16T20:57:19.991Z,94779.41
2023-05-16T21:00:06.560Z,94800.84
2023-05-16T21:02:52.674Z,94815.31
2023-05-16T21:05:39.399Z,94824.28
2023-05-16T21:08:25.771Z,94820.72
2023-05-16T21:11:11.977Z,94814.78
2023-05-16T21:13:57.741Z,94817.47
2023-05-16T21:16:43.687Z,94796.66
2023-05-16T21:19:34.129Z,94810.00
2023-05-16T21:22:20.335Z,94811.19
2023-05-16T21:25:06.698Z,94804.13
2023-05-16T21:27:53.019Z,94794.72
2023-05-16T21:30:39.038Z,94806.88
2023-05-16T21:33:25.240Z,94795.50
2023-05-16T21:36:11.096Z,94775.53
2023-05-16T21:38:57.415Z,94775.53
2023-05-16T21:41:43.450Z,94787.25
2023-05-16T21:44:31.736Z,94798.91
2023-05-16T21:47:18.048Z,94797.31
2023-05-16T21:50:05.403Z,94782.38
2023-05-16T21:52:51.432Z,94787.44
2023-05-16T21:55:38.316Z,94790.06
2023-05-16T21:58:26.366Z,94768.72
2023-05-16T22:01:14.958Z,94782.84
2023-05-16T22:04:02.719Z,94743.41
2023-05-16T22:06:48.720Z,94790.56
2023-05-16T22:09:54.817Z,94796.81
2023-05-16T22:12:43.337Z,94796.03
2023-05-16T22:15:34.475Z,94797.47
2023-05-16T22:18:33.333Z,94800.22
2023-05-16T22:21:20.552Z,94792.00
2023-05-16T22:24:07.088Z,94798.34
2023-05-16T22:26:53.148Z,94807.69
2023-05-16T22:29:39.062Z,94799.78
2023-05-16T22:32:25.173Z,94798.97
2023-05-16T22:35:11.192Z,94790.34
2023-05-16T22:38:01.939Z,94814.63
2023-05-16T22:40:47.748Z,94809.03
2023-05-16T22:43:34.691Z,94818.50
2023-05-16T22:46:20.874Z,94796.53
2023-05-16T22:49:06.786Z,94801.25
2023-05-16T22:51:56.729Z,94795.69
2023-05-16T22:54:51.796Z,94799.63
2023-05-16T22:57:37.714Z,94803.88
2023-05-16T23:00:24.566Z,94799.44
2023-05-16T23:03:13.383Z,94796.31
2023-05-16T23:05:59.313Z,94802.16
2023-05-16T23:08:45.164Z,94809.53
2023-05-16T23:11:32.403Z,94818.09
2023-05-16T23:14:18.496Z,94807.84
2023-05-16T23:17:05.652Z,94820.31
2023-05-16T23:19:51.706Z,94822.63
2023-05-16T23:22:37.674Z,94832.69
2023-05-16T23:25:27.643Z,94821.06
2023-05-16T23:28:15.317Z,94821.34
2023-05-16T23:31:01.047Z,94831.13
2023-05-16T23:33:46.933Z,94834.28
2023-05-16T23:36:33.052Z,94825.22
2023-05-16T23:39:19.013Z,94828.38
2023-05-16T23:42:05.161Z,94823.97
2023-05-16T23:44:51.511Z,94842.03
2023-05-16T23:47:37.824Z,94844.31
2023-05-16T23:50:23.838Z,94847.47
2023-05-16T23:53:09.791Z,94844.69
2023-05-16T23:55:55.876Z,94854.09
2023-05-16T23:58:41.896Z,94848.19
